Time;durP1;ratioP1;P1;durP2;ratioP2;P2;SDS_P1;SDS_P2;PMS_P1;PMS_P2;Temp;Humidity;BMP_temperature;BMP_pressure;BME280_temperature;BME280_humidity;BME280_pressure;Samples;Min_cycle;Max_cycle;Signal;HPM_P1;HPM_P2
2022/07/03 00:01:35;;;;;;;5.70;5.20;;;19.70;99.90;;;;;;5074072;28;20447;-74
2022/07/03 00:04:02;;;;;;;5.40;5.00;;;19.60;99.90;;;;;;5074194;28;20534;-73
2022/07/03 00:06:30;;;;;;;4.97;4.57;;;19.50;99.90;;;;;;5073872;28;20460;-74
2022/07/03 00:08:58;;;;;;;6.80;5.37;;;19.50;99.90;;;;;;5072658;28;20481;-74
2022/07/03 00:11:26;;;;;;;6.33;4.27;;;19.50;99.90;;;;;;5072715;28;20966;-74
2022/07/03 00:13:53;;;;;;;4.50;4.20;;;19.40;99.90;;;;;;5072782;28;20488;-74
2022/07/03 00:16:20;;;;;;;5.33;4.83;;;19.40;99.90;;;;;;5072974;28;20451;-74
2022/07/03 00:18:46;;;;;;;4.37;4.03;;;19.30;99.90;;;;;;5072943;28;20448;-74
2022/07/03 00:21:19;;;;;;;5.03;4.73;;;19.30;99.90;;;;;;5072834;28;20448;-74
2022/07/03 00:23:53;;;;;;;6.23;5.63;;;19.30;99.90;;;;;;5073322;28;20494;-74
2022/07/03 00:26:21;;;;;;;4.90;4.50;;;19.20;99.90;;;;;;5072957;28;20907;-73
2022/07/03 00:28:51;;;;;;;5.33;4.83;;;19.20;99.90;;;;;;5072741;28;20963;-74
2022/07/03 00:31:17;;;;;;;5.97;5.47;;;19.10;99.90;;;;;;5073086;28;20827;-73
2022/07/03 00:33:46;;;;;;;5.90;4.50;;;19.00;99.90;;;;;;5071891;28;20484;-74
2022/07/03 00:36:13;;;;;;;4.27;3.87;;;19.00;99.90;;;;;;5072789;28;20440;-74
2022/07/03 00:38:39;;;;;;;4.97;4.60;;;19.00;99.90;;;;;;5073304;28;20476;-74
2022/07/03 00:41:06;;;;;;;4.77;4.47;;;18.90;99.90;;;;;;5072565;28;20447;-74
2022/07/03 00:43:33;;;;;;;4.63;4.33;;;18.90;99.90;;;;;;5072640;28;20476;-73
2022/07/03 00:46:08;;;;;;;5.03;4.70;;;18.80;99.90;;;;;;5072470;28;20540;-73
2022/07/03 00:48:38;;;;;;;4.30;4.00;;;18.80;99.90;;;;;;5072694;28;20468;-73
2022/07/03 00:51:07;;;;;;;5.30;4.80;;;18.80;99.90;;;;;;5071988;28;20975;-73
2022/07/03 00:53:36;;;;;;;5.73;5.23;;;18.80;99.90;;;;;;5072255;28;20512;-73
2022/07/03 00:56:05;;;;;;;5.37;4.97;;;18.80;99.90;;;;;;5072225;28;20510;-75
2022/07/03 00:58:34;;;;;;;4.77;4.47;;;18.70;99.90;;;;;;5072111;28;20971;-75
2022/07/03 01:01:01;;;;;;;5.87;4.70;;;18.70;99.90;;;;;;5072416;28;20476;-73
2022/07/03 01:03:35;;;;;;;5.13;4.70;;;18.70;99.90;;;;;;5072147;28;20483;-73
2022/07/03 01:06:09;;;;;;;5.13;4.77;;;18.60;99.90;;;;;;5072140;28;20437;-73
2022/07/03 01:08:41;;;;;;;5.60;4.97;;;18.60;99.90;;;;;;5071973;28;20845;-74
2022/07/03 01:11:15;;;;;;;5.83;4.43;;;18.60;99.90;;;;;;5072053;28;20515;-74
2022/07/03 01:13:51;;;;;;;5.30;4.90;;;18.60;99.90;;;;;;5071684;28;21045;-73
2022/07/03 01:16:24;;;;;;;5.73;5.23;;;18.60;99.90;;;;;;5072187;28;20429;-73
2022/07/03 01:18:55;;;;;;;5.53;5.07;;;18.60;99.90;;;;;;5071976;28;20437;-72
2022/07/03 01:21:32;;;;;;;5.73;5.23;;;18.60;99.90;;;;;;5072596;28;20428;-74
2022/07/03 01:24:26;;;;;;;5.17;4.77;;;18.50;99.90;;;;;;5071669;28;20472;-74
2022/07/03 01:26:58;;;;;;;5.17;4.77;;;18.60;99.90;;;;;;5071898;28;20433;-73
2022/07/03 01:29:32;;;;;;;4.90;4.60;;;18.50;99.90;;;;;;5072583;28;20435;-73
2022/07/03 01:32:00;;;;;;;7.13;5.27;;;18.50;99.90;;;;;;5071954;28;20899;-73
2022/07/03 01:34:34;;;;;;;5.90;5.47;;;18.60;99.90;;;;;;5071735;28;20844;-73
2022/07/03 01:37:02;;;;;;;5.80;5.20;;;18.60;99.90;;;;;;5072063;28;20428;-74
2022/07/03 01:39:30;;;;;;;5.87;5.37;;;18.70;99.90;;;;;;5072548;28;20888;-74
2022/07/03 01:42:01;;;;;;;5.23;4.83;;;18.60;99.90;;;;;;5071916;28;20452;-74
2022/07/03 01:44:29;;;;;;;5.77;5.30;;;18.40;99.90;;;;;;5074048;28;20613;-73
2022/07/03 01:46:59;;;;;;;5.30;4.90;;;18.50;99.90;;;;;;5075745;28;20453;-73
2022/07/03 01:49:27;;;;;;;5.70;5.00;;;18.50;99.90;;;;;;5075574;28;20992;-73
2022/07/03 01:51:55;;;;;;;5.40;5.00;;;18.40;99.90;;;;;;5075470;28;20449;-74
2022/07/03 01:54:26;;;;;;;6.80;5.27;;;18.30;99.90;;;;;;5074924;28;20491;-74
2022/07/03 01:56:54;;;;;;;5.10;4.60;;;18.20;99.90;;;;;;5075515;28;20523;-74
2022/07/03 01:59:22;;;;;;;5.10;4.70;;;18.10;99.90;;;;;;5075528;28;20444;-73
2022/07/03 02:01:52;;;;;;;5.83;5.33;;;18.10;99.90;;;;;;5075755;28;20445;-73
2022/07/03 02:04:25;;;;;;;5.43;5.03;;;18.10;99.90;;;;;;5075678;28;20517;-73
2022/07/03 02:07:03;;;;;;;5.20;4.80;;;18.00;99.90;;;;;;5076316;28;20437;-73
2022/07/03 02:09:37;;;;;;;5.90;5.40;;;18.00;99.90;;;;;;5075420;28;20454;-73
2022/07/03 02:12:06;;;;;;;5.27;4.77;;;18.00;99.90;;;;;;5075287;28;20472;-74
2022/07/03 02:14:37;;;;;;;6.20;5.67;;;18.10;99.90;;;;;;5075454;28;20896;-73
2022/07/03 02:17:16;;;;;;;6.07;5.57;;;18.10;99.90;;;;;;5075408;28;20907;-74
2022/07/03 02:19:54;;;;;;;5.43;5.03;;;18.00;99.90;;;;;;5075602;28;20424;-73
2022/07/03 02:22:25;;;;;;;5.37;4.97;;;18.00;99.90;;;;;;5075636;28;20523;-73
2022/07/03 02:24:53;;;;;;;9.63;5.40;;;18.00;99.90;;;;;;5080849;22;20486;-76
2022/07/03 02:27:22;;;;;;;5.30;4.90;;;17.90;99.90;;;;;;5058197;28;20449;-76
2022/07/03 02:29:55;;;;;;;6.03;5.33;;;17.90;99.90;;;;;;5057703;28;20949;-76
2022/07/03 02:32:23;;;;;;;6.60;6.00;;;17.90;99.90;;;;;;5058534;28;20801;-76
2022/07/03 02:34:59;;;;;;;5.87;5.40;;;18.00;99.90;;;;;;5059645;28;20489;-77
2022/07/03 02:37:31;;;;;;;9.63;6.10;;;18.00;99.90;;;;;;5058204;28;20504;-76
2022/07/03 02:40:05;;;;;;;5.97;5.47;;;18.00;99.90;;;;;;5057708;28;20429;-76
2022/07/03 02:42:38;;;;;;;6.03;5.60;;;17.80;99.90;;;;;;5057341;28;20422;-77
2022/07/03 02:45:09;;;;;;;5.57;5.10;;;17.70;99.90;;;;;;5056990;28;20473;-76
2022/07/03 02:47:46;;;;;;;6.23;5.50;;;17.60;99.90;;;;;;5056653;28;20436;-76
2022/07/03 02:50:17;;;;;;;5.30;4.90;;;17.60;99.90;;;;;;5057529;28;20429;-77
2022/07/03 02:52:55;;;;;;;6.40;5.90;;;17.60;99.90;;;;;;5056777;28;20437;-76
2022/07/03 02:55:35;;;;;;;5.60;5.10;;;17.80;99.90;;;;;;5055556;28;20497;-76
2022/07/03 02:58:14;;;;;;;6.03;5.53;;;17.70;99.90;;;;;;5056944;28;20487;-76
2022/07/03 03:00:49;;;;;;;6.00;5.47;;;17.70;99.90;;;;;;5056727;28;20430;-77
2022/07/03 03:03:25;;;;;;;6.27;5.77;;;17.70;99.90;;;;;;5055986;28;20437;-76
2022/07/03 03:05:54;;;;;;;6.83;6.43;;;17.70;99.90;;;;;;5055683;28;20509;-76
2022/07/03 03:08:29;;;;;;;5.50;5.10;;;17.70;99.90;;;;;;5056499;28;20445;-76
2022/07/03 03:11:03;;;;;;;6.80;6.10;;;17.80;99.90;;;;;;5056599;28;20517;-76
2022/07/03 03:13:32;;;;;;;5.90;5.47;;;17.80;99.90;;;;;;5056085;28;20937;-76
2022/07/03 03:16:06;;;;;;;5.80;5.23;;;17.80;99.90;;;;;;5055647;28;20484;-76
2022/07/03 03:18:35;;;;;;;6.73;6.10;;;17.70;99.90;;;;;;5055847;28;20437;-76
2022/07/03 03:21:03;;;;;;;6.17;5.80;;;17.70;99.90;;;;;;5055697;28;20458;-76
2022/07/03 03:23:43;;;;;;;5.40;5.00;;;17.70;99.90;;;;;;5055047;28;21017;-76
2022/07/03 03:26:10;;;;;;;6.23;5.73;;;17.70;99.90;;;;;;5055447;28;20414;-77
2022/07/03 03:28:37;;;;;;;6.87;6.13;;;17.80;99.90;;;;;;5054859;28;20944;-77
2022/07/03 03:31:08;;;;;;;6.03;5.53;;;17.70;99.90;;;;;;5055106;28;20453;-76
2022/07/03 03:33:39;;;;;;;6.57;6.07;;;17.80;99.90;;;;;;5055384;28;20453;-77
2022/07/03 03:36:07;;;;;;;6.83;6.30;;;17.80;99.90;;;;;;5055316;28;20497;-76
2022/07/03 03:38:35;;;;;;;7.87;7.17;;;17.90;99.90;;;;;;5055112;28;20792;-77
2022/07/03 03:41:03;;;;;;;6.20;5.60;;;17.90;99.90;;;;;;5055334;28;20537;-76
2022/07/03 03:43:29;;;;;;;6.03;5.63;;;17.90;99.90;;;;;;5055741;28;20452;-76
2022/07/03 03:45:57;;;;;;;5.77;5.37;;;17.90;99.90;;;;;;5056192;28;20438;-76
2022/07/03 03:48:25;;;;;;;6.40;5.90;;;17.90;99.90;;;;;;5056020;28;20828;-76
2022/07/03 03:50:52;;;;;;;8.13;6.07;;;17.90;99.90;;;;;;5054626;28;20453;-76
2022/07/03 03:53:20;;;;;;;5.90;5.40;;;17.80;99.90;;;;;;5055030;28;20454;-77
2022/07/03 03:56:00;;;;;;;7.30;6.70;;;17.90;99.90;;;;;;5054622;28;20481;-77
2022/07/03 03:58:27;;;;;;;6.83;6.23;;;18.00;99.90;;;;;;5054732;28;20465;-77
2022/07/03 04:00:55;;;;;;;6.80;6.10;;;18.00;99.90;;;;;;5054022;28;20457;-76
2022/07/03 04:03:22;;;;;;;6.73;6.03;;;18.00;99.90;;;;;;5054163;28;20450;-77
2022/07/03 04:05:50;;;;;;;6.53;5.97;;;17.90;99.90;;;;;;5054265;28;20848;-77
2022/07/03 04:08:17;;;;;;;7.20;6.50;;;17.90;99.90;;;;;;5054479;28;20457;-77
2022/07/03 04:10:44;;;;;;;7.23;6.53;;;17.90;99.90;;;;;;5054528;28;20453;-76
2022/07/03 04:13:10;;;;;;;6.17;5.70;;;17.90;99.90;;;;;;5054492;28;20812;-76
2022/07/03 04:15:37;;;;;;;6.67;6.17;;;18.00;99.90;;;;;;5054407;28;20485;-77
2022/07/03 04:18:04;;;;;;;6.20;5.70;;;18.00;99.90;;;;;;5054111;28;20453;-76
2022/07/03 04:20:31;;;;;;;6.30;5.90;;;18.10;99.90;;;;;;5053675;28;20453;-76
2022/07/03 04:23:00;;;;;;;7.70;6.60;;;18.10;99.90;;;;;;5053929;28;20460;-76
2022/07/03 04:25:26;;;;;;;6.43;5.93;;;18.10;99.90;;;;;;5053336;28;20470;-77
2022/07/03 04:27:53;;;;;;;7.33;6.60;;;18.10;99.90;;;;;;5053511;28;20937;-76
2022/07/03 04:30:20;;;;;;;6.80;6.20;;;18.10;99.90;;;;;;5053657;28;20897;-76
2022/07/03 04:32:47;;;;;;;6.00;5.50;;;18.20;99.90;;;;;;5054082;28;20472;-76
2022/07/03 04:35:14;;;;;;;6.20;5.60;;;18.30;99.90;;;;;;5053571;28;20892;-77
2022/07/03 04:37:42;;;;;;;7.40;6.90;;;18.30;99.90;;;;;;5053756;28;20814;-77
2022/07/03 04:40:11;;;;;;;6.90;6.30;;;18.30;99.90;;;;;;5053867;28;20480;-76
2022/07/03 04:42:38;;;;;;;6.40;5.87;;;18.40;99.90;;;;;;5053937;28;20453;-76
2022/07/03 04:45:06;;;;;;;6.77;6.17;;;18.40;99.90;;;;;;5056504;28;20552;-77
2022/07/03 04:47:33;;;;;;;6.67;6.17;;;18.50;99.90;;;;;;5054507;28;20423;-77
2022/07/03 04:49:59;;;;;;;7.17;6.67;;;18.50;99.90;;;;;;5054086;28;20456;-77
2022/07/03 04:52:26;;;;;;;7.30;6.70;;;18.60;99.90;;;;;;5053921;28;20449;-77
2022/07/03 04:54:53;;;;;;;6.20;5.70;;;18.60;99.90;;;;;;5053474;28;20517;-77
2022/07/03 04:57:21;;;;;;;8.03;6.27;;;18.70;99.90;;;;;;5053836;28;20467;-77
2022/07/03 04:59:48;;;;;;;6.47;5.97;;;18.70;99.90;;;;;;5054297;28;20445;-77
2022/07/03 05:02:15;;;;;;;6.73;6.23;;;18.80;99.90;;;;;;5054195;28;20446;-77
2022/07/03 05:04:41;;;;;;;7.03;5.87;;;18.90;99.90;;;;;;5053124;28;21007;-77
2022/07/03 05:07:08;;;;;;;6.40;5.90;;;18.90;99.90;;;;;;5053571;28;20469;-76
2022/07/03 05:09:35;;;;;;;6.20;5.80;;;19.00;99.90;;;;;;5053616;28;20442;-76
2022/07/03 05:12:02;;;;;;;6.03;5.43;;;19.10;99.90;;;;;;5053564;28;20449;-76
2022/07/03 05:14:30;;;;;;;6.03;5.43;;;19.20;99.90;;;;;;5053549;28;20462;-77
2022/07/03 05:16:56;;;;;;;6.40;5.90;;;19.20;99.90;;;;;;5053234;28;20824;-76
2022/07/03 05:19:23;;;;;;;6.20;5.60;;;19.20;99.90;;;;;;5052998;28;20441;-76
2022/07/03 05:21:50;;;;;;;6.30;5.70;;;19.30;99.90;;;;;;5052918;28;20980;-78
2022/07/03 05:24:16;;;;;;;8.10;5.80;;;19.40;99.90;;;;;;5053313;28;20489;-76
2022/07/03 05:26:43;;;;;;;6.60;5.93;;;19.50;99.90;;;;;;5053568;28;20821;-76
2022/07/03 05:29:10;;;;;;;6.10;5.60;;;19.60;99.90;;;;;;5053326;28;20824;-77
2022/07/03 05:31:38;;;;;;;5.80;5.40;;;19.60;99.90;;;;;;5053421;28;20450;-77
2022/07/03 05:34:05;;;;;;;6.60;6.10;;;19.60;99.90;;;;;;5053188;28;20469;-76
2022/07/03 05:36:31;;;;;;;5.67;4.90;;;19.70;99.90;;;;;;5053043;28;20996;-76
2022/07/03 05:41:42;;;;;;;5.23;4.83;;;19.90;99.90;;;;;;5053283;28;20476;-76
2022/07/03 05:44:09;;;;;;;5.07;4.57;;;20.00;99.90;;;;;;5053452;28;20470;-78
2022/07/03 05:46:37;;;;;;;8.80;4.70;;;20.20;99.90;;;;;;5053868;28;20453;-77
2022/07/03 05:49:05;;;;;;;6.20;5.60;;;20.20;99.90;;;;;;5054085;28;20873;-76
2022/07/03 05:51:32;;;;;;;5.47;5.07;;;20.30;99.90;;;;;;5053801;28;20454;-77
2022/07/03 05:53:59;;;;;;;4.80;4.40;;;20.40;99.90;;;;;;5052999;28;20469;-77
2022/07/03 05:56:25;;;;;;;5.67;5.00;;;20.60;99.90;;;;;;5053090;28;20481;-77
2022/07/03 05:58:52;;;;;;;5.63;5.13;;;20.60;99.90;;;;;;5053277;28;20446;-76
2022/07/03 06:01:19;;;;;;;5.30;4.10;;;20.70;99.90;;;;;;5053739;28;20813;-76
2022/07/03 06:03:47;;;;;;;5.13;4.80;;;20.80;99.90;;;;;;5053014;28;20979;-76
2022/07/03 06:06:14;;;;;;;4.70;4.30;;;20.90;99.90;;;;;;5053626;28;20507;-76
2022/07/03 06:08:40;;;;;;;4.93;4.43;;;20.90;99.90;;;;;;5053212;28;20825;-78
2022/07/03 06:11:07;;;;;;;4.70;4.40;;;20.90;99.90;;;;;;5052688;28;20450;-77
2022/07/03 06:13:34;;;;;;;4.20;3.87;;;21.00;99.90;;;;;;5052739;28;20832;-77
2022/07/03 06:16:01;;;;;;;4.73;4.37;;;21.10;99.90;;;;;;5052428;28;20568;-78
2022/07/03 06:18:28;;;;;;;4.90;4.50;;;21.10;99.90;;;;;;5053122;28;20835;-77
2022/07/03 06:20:56;;;;;;;5.10;4.50;;;21.20;99.90;;;;;;5052564;28;20446;-77
2022/07/03 06:23:22;;;;;;;5.43;4.93;;;21.20;99.90;;;;;;5052816;28;20452;-77
2022/07/03 06:25:49;;;;;;;6.77;6.10;;;21.20;99.90;;;;;;5052517;28;20969;-77
2022/07/03 06:28:16;;;;;;;7.40;4.50;;;21.30;99.90;;;;;;5053678;28;20536;-76
2022/07/03 06:30:43;;;;;;;4.60;4.30;;;21.30;99.90;;;;;;5053280;28;20450;-77
2022/07/03 06:33:10;;;;;;;5.73;4.50;;;21.40;99.90;;;;;;5056698;28;20460;-77
2022/07/03 06:35:36;;;;;;;6.97;5.07;;;21.30;99.90;;;;;;5056530;28;20492;-78
2022/07/03 06:38:05;;;;;;;5.00;4.50;;;21.40;99.90;;;;;;5056842;28;20560;-77
2022/07/03 06:40:31;;;;;;;4.57;4.27;;;21.40;99.90;;;;;;5057264;28;20446;-77
2022/07/03 06:42:59;;;;;;;4.43;4.00;;;21.50;99.90;;;;;;5056175;28;20450;-76
2022/07/03 06:45:25;;;;;;;5.47;4.97;;;21.60;99.90;;;;;;5056838;28;20462;-76
2022/07/03 06:47:52;;;;;;;5.13;3.83;;;21.60;99.90;;;;;;5057536;28;20520;-78
2022/07/03 06:50:19;;;;;;;4.90;4.50;;;21.70;99.90;;;;;;5056350;28;20496;-77
2022/07/03 06:52:46;;;;;;;4.70;4.30;;;21.80;99.90;;;;;;5056673;28;20499;-77
2022/07/03 06:55:14;;;;;;;3.77;3.57;;;21.80;99.90;;;;;;5056549;28;20492;-76
2022/07/03 06:57:41;;;;;;;4.73;4.30;;;21.90;99.90;;;;;;5057137;28;20469;-77
2022/07/03 07:00:09;;;;;;;4.00;3.80;;;22.10;99.90;;;;;;5058984;28;20921;-77
2022/07/03 07:02:36;;;;;;;5.10;4.70;;;22.10;99.90;;;;;;5057602;28;20450;-77
2022/07/03 07:05:03;;;;;;;5.50;5.10;;;22.20;99.90;;;;;;5056733;28;20462;-76
2022/07/03 07:07:31;;;;;;;8.13;4.63;;;22.30;99.90;;;;;;5056141;28;20450;-77
2022/07/03 07:09:58;;;;;;;4.70;4.07;;;22.40;99.90;;;;;;5055918;28;20449;-77
2022/07/03 07:12:26;;;;;;;5.43;4.30;;;22.40;99.90;;;;;;5056602;28;20446;-77
2022/07/03 07:14:52;;;;;;;4.37;4.07;;;22.40;99.90;;;;;;5056040;28;20474;-78
2022/07/03 07:17:19;;;;;;;4.33;4.03;;;22.40;99.90;;;;;;5056780;28;20816;-77
2022/07/03 07:19:46;;;;;;;3.90;3.70;;;22.40;99.90;;;;;;5055547;28;20456;-77
2022/07/03 07:22:13;;;;;;;3.87;3.47;;;22.60;99.90;;;;;;5055450;28;20449;-77
2022/07/03 07:24:39;;;;;;;4.43;4.03;;;22.60;99.90;;;;;;5055186;28;20998;-75
2022/07/03 07:27:06;;;;;;;3.63;3.33;;;22.70;99.90;;;;;;5055679;28;20456;-76
2022/07/03 07:29:34;;;;;;;4.00;3.80;;;22.80;99.90;;;;;;5056342;28;20445;-76
2022/07/03 07:32:01;;;;;;;3.77;3.57;;;22.90;99.90;;;;;;5055598;28;20460;-77
2022/07/03 07:34:28;;;;;;;3.80;3.50;;;22.90;99.90;;;;;;5055727;28;20462;-76
2022/07/03 07:36:55;;;;;;;3.97;3.70;;;23.00;99.90;;;;;;5055552;28;20486;-77
2022/07/03 07:39:21;;;;;;;3.50;3.30;;;23.00;99.90;;;;;;5055667;28;20449;-77
2022/07/03 07:41:48;;;;;;;3.70;3.50;;;23.10;99.90;;;;;;5055114;28;20457;-77
2022/07/03 07:44:15;;;;;;;4.67;4.27;;;23.20;99.90;;;;;;5055182;28;20466;-77
2022/07/03 07:46:43;;;;;;;5.10;4.50;;;23.30;99.90;;;;;;5056182;28;20448;-78
2022/07/03 07:49:10;;;;;;;3.93;3.73;;;23.40;99.90;;;;;;5056420;28;20800;-77
2022/07/03 07:51:36;;;;;;;4.10;3.10;;;23.40;99.90;;;;;;5055575;28;20456;-77
2022/07/03 07:54:03;;;;;;;4.27;3.90;;;23.50;99.90;;;;;;5055362;28;20867;-77
2022/07/03 07:56:30;;;;;;;7.00;3.80;;;23.60;99.90;;;;;;5054942;28;20527;-76
2022/07/03 07:58:57;;;;;;;4.13;3.83;;;23.60;99.90;;;;;;5055174;28;20465;-76
2022/07/03 08:06:53;;;;;;;3.57;3.37;;;23.80;99.90;;;;;;5056717;28;20541;-77
2022/07/03 08:09:20;;;;;;;8.47;3.90;;;23.80;99.90;;;;;;5056973;28;20449;-77
2022/07/03 08:11:47;;;;;;;3.27;3.07;;;23.80;99.90;;;;;;5055378;28;20453;-76
2022/07/03 08:14:13;;;;;;;10.13;4.20;;;23.80;99.90;;;;;;5054396;28;20871;-76
2022/07/03 08:16:40;;;;;;;5.10;3.70;;;23.90;99.90;;;;;;5054812;28;20484;-76
2022/07/03 08:19:09;;;;;;;3.77;3.57;;;23.90;99.90;;;;;;5054858;28;20548;-78
2022/07/03 08:21:36;;;;;;;5.13;3.80;;;24.00;99.90;;;;;;5054663;28;20450;-77
2022/07/03 08:26:33;;;;;;;4.83;4.43;;;24.10;99.90;;;;;;5032610;28;20484;-75
2022/07/03 08:28:59;;;;;;;4.50;4.20;;;24.10;99.90;;;;;;5033506;28;20446;-74
2022/07/03 08:31:26;;;;;;;3.90;3.60;;;24.10;99.90;;;;;;5033091;28;20976;-75
2022/07/03 08:33:53;;;;;;;3.20;3.00;;;24.10;99.90;;;;;;5033364;28;20489;-75
2022/07/03 08:36:21;;;;;;;3.60;3.33;;;24.10;99.90;;;;;;5032898;28;21004;-74
2022/07/03 08:38:48;;;;;;;8.77;3.50;;;24.20;99.90;;;;;;5033254;28;20450;-75
2022/07/03 08:41:16;;;;;;;4.20;3.90;;;24.20;99.90;;;;;;5033339;28;20450;-75
2022/07/03 08:43:44;;;;;;;3.63;3.33;;;24.30;99.90;;;;;;5033200;28;20446;-75
2022/07/03 08:46:11;;;;;;;3.57;3.30;;;24.30;99.90;;;;;;5033305;28;20478;-73
2022/07/03 08:48:40;;;;;;;4.20;3.90;;;24.50;99.90;;;;;;5033382;28;20454;-74
2022/07/03 08:51:07;;;;;;;5.13;3.80;;;24.60;99.90;;;;;;5033168;28;20450;-74
2022/07/03 08:53:36;;;;;;;4.40;4.00;;;24.70;99.90;;;;;;5032522;28;20450;-74
2022/07/03 08:56:04;;;;;;;3.97;3.67;;;24.70;99.90;;;;;;5032587;28;20489;-75
2022/07/03 08:58:32;;;;;;;4.73;4.20;;;24.60;99.90;;;;;;5033158;28;20815;-74
2022/07/03 09:00:59;;;;;;;6.63;4.07;;;24.70;99.90;;;;;;5033055;28;20861;-75
2022/07/03 09:03:27;;;;;;;3.60;3.40;;;24.80;99.90;;;;;;5032722;28;20446;-74
2022/07/03 09:05:54;;;;;;;3.83;3.53;;;24.90;99.90;;;;;;5032768;28;20470;-75
2022/07/03 09:08:22;;;;;;;4.10;3.70;;;24.80;99.90;;;;;;5033072;28;20857;-75
2022/07/03 09:10:50;;;;;;;3.73;3.43;;;24.80;99.90;;;;;;5033070;28;20557;-75
2022/07/03 09:13:17;;;;;;;6.83;4.53;;;24.80;99.90;;;;;;5032836;28;20454;-74
2022/07/03 09:15:44;;;;;;;4.37;3.97;;;24.90;99.90;;;;;;5033005;28;20475;-75
2022/07/03 09:18:11;;;;;;;4.20;3.80;;;25.00;99.90;;;;;;5032899;28;20537;-75
2022/07/03 09:20:40;;;;;;;3.50;3.30;;;25.20;99.90;;;;;;5032924;28;20783;-75
2022/07/03 09:23:14;;;;;;;4.13;3.73;;;25.20;99.90;;;;;;5033184;28;20455;-76
2022/07/03 09:25:56;;;;;;;4.53;3.80;;;25.20;99.90;;;;;;5045570;28;20473;-75
2022/07/03 09:28:24;;;;;;;4.80;3.50;;;25.20;99.90;;;;;;5052952;28;20447;-75
2022/07/03 09:30:58;;;;;;;5.70;4.60;;;25.30;99.90;;;;;;5052949;28;20450;-75
2022/07/03 09:33:25;;;;;;;4.10;3.80;;;25.20;99.90;;;;;;5052850;28;20456;-75
2022/07/03 09:35:55;;;;;;;6.57;4.40;;;25.30;99.90;;;;;;5052610;28;20496;-75
2022/07/03 09:38:22;;;;;;;3.90;3.60;;;25.30;99.90;;;;;;5053513;28;20488;-75
2022/07/03 09:40:51;;;;;;;5.70;4.10;;;25.30;99.90;;;;;;5052279;28;20823;-76
2022/07/03 09:43:24;;;;;;;3.90;3.23;;;25.50;99.90;;;;;;5052365;28;20446;-76
2022/07/03 09:45:55;;;;;;;4.20;3.90;;;25.60;99.90;;;;;;5052113;28;20552;-75
2022/07/03 09:48:23;;;;;;;4.13;3.83;;;25.50;99.90;;;;;;5052474;28;20434;-76
2022/07/03 09:50:50;;;;;;;4.87;4.43;;;25.50;99.90;;;;;;5052046;28;20456;-75
2022/07/03 09:53:17;;;;;;;4.80;4.43;;;25.60;99.90;;;;;;5052415;28;20796;-75
2022/07/03 09:55:57;;;;;;;3.27;3.03;;;25.70;99.90;;;;;;5052236;28;20469;-74
2022/07/03 09:58:25;;;;;;;6.23;4.30;;;25.80;99.90;;;;;;5051767;28;20430;-74
2022/07/03 10:00:51;;;;;;;4.80;3.60;;;25.90;99.90;;;;;;5052348;28;20457;-75
2022/07/03 10:03:21;;;;;;;4.50;4.20;;;25.80;99.90;;;;;;5052458;28;20457;-75
2022/07/03 10:05:48;;;;;;;4.00;3.70;;;25.80;99.90;;;;;;5054485;28;20477;-75
2022/07/03 10:08:16;;;;;;;4.83;4.43;;;25.80;99.90;;;;;;5056180;28;20448;-75
2022/07/03 10:10:44;;;;;;;3.90;3.70;;;25.80;99.90;;;;;;5056170;28;20449;-75
2022/07/03 10:13:11;;;;;;;5.53;4.23;;;25.80;99.90;;;;;;5056134;28;20445;-75
2022/07/03 10:15:40;;;;;;;3.87;3.63;;;25.90;99.90;;;;;;5055978;28;20461;-74
2022/07/03 10:18:08;;;;;;;4.07;3.77;;;26.00;99.90;;;;;;5055823;28;20478;-74
2022/07/03 10:20:37;;;;;;;5.67;5.00;;;26.00;99.90;;;;;;5055761;28;20953;-75
2022/07/03 10:23:04;;;;;;;3.83;3.63;;;26.10;99.90;;;;;;5056012;28;20492;-75
2022/07/03 10:25:31;;;;;;;4.60;4.30;;;26.20;99.90;;;;;;5055674;28;20559;-76
2022/07/03 10:27:59;;;;;;;3.70;3.50;;;26.20;99.90;;;;;;5055800;28;20446;-75
2022/07/03 10:30:26;;;;;;;54.27;49.50;;;26.10;99.80;;;;;;5055869;28;20518;-75
2022/07/03 10:32:56;;;;;;;17.90;16.10;;;26.30;99.90;;;;;;5055758;28;20457;-75
2022/07/03 10:35:26;;;;;;;4.50;4.10;;;26.40;99.90;;;;;;5055353;28;21015;-75
2022/07/03 10:38:18;;;;;;;4.10;3.70;;;26.40;99.90;;;;;;5055670;28;20481;-74
2022/07/03 10:46:27;;;;;;;5.40;4.40;;;26.30;99.90;;;;;;5055181;28;20406;-74
2022/07/03 10:49:03;;;;;;;4.60;4.30;;;26.40;99.90;;;;;;5055088;28;20453;-75
2022/07/03 10:51:32;;;;;;;4.67;4.17;;;26.50;99.90;;;;;;5055264;28;20807;-75
2022/07/03 10:54:15;;;;;;;5.20;4.80;;;26.60;99.90;;;;;;5055348;28;20446;-74
2022/07/03 10:57:15;;;;;;;4.83;4.43;;;26.70;99.90;;;;;;5055133;28;20488;-75
2022/07/03 11:00:16;;;;;;;4.60;4.20;;;26.70;99.10;;;;;;5055010;28;20967;-75
2022/07/03 11:02:45;;;;;;;4.53;3.90;;;26.70;99.90;;;;;;5055080;28;20436;-75
2022/07/03 11:05:27;;;;;;;3.37;3.17;;;26.70;99.90;;;;;;5054920;28;20482;-74
2022/07/03 11:08:11;;;;;;;4.00;3.80;;;26.70;99.90;;;;;;5055706;28;20422;-74
2022/07/03 11:10:42;;;;;;;4.37;3.97;;;26.90;99.90;;;;;;5054814;28;20816;-75
2022/07/03 11:13:16;;;;;;;4.60;4.30;;;26.90;99.90;;;;;;5054718;28;20897;-75
2022/07/03 11:15:47;;;;;;;5.20;3.70;;;27.00;99.90;;;;;;5054852;28;20474;-75
2022/07/03 11:18:30;;;;;;;5.63;4.00;;;26.90;99.90;;;;;;5053799;28;20520;-75
2022/07/03 11:21:16;;;;;;;4.77;3.93;;;27.00;99.90;;;;;;5051792;28;20458;-75
2022/07/03 11:23:58;;;;;;;7.57;5.40;;;27.20;99.90;;;;;;5054603;28;20430;-76
2022/07/03 11:26:24;;;;;;;3.83;3.53;;;27.30;99.90;;;;;;5054395;28;20503;-75
2022/07/03 11:28:53;;;;;;;3.50;3.30;;;27.40;99.90;;;;;;5054592;28;20822;-75
2022/07/03 11:31:21;;;;;;;3.90;3.53;;;27.40;99.90;;;;;;5054715;28;20437;-75
2022/07/03 11:33:57;;;;;;;11.03;8.30;;;27.50;97.40;;;;;;5054677;28;20642;-74
2022/07/03 11:36:27;;;;;;;3.87;3.57;;;27.50;99.90;;;;;;5054809;28;20429;-74
2022/07/03 11:39:09;;;;;;;6.40;4.90;;;27.50;99.90;;;;;;5054478;28;20797;-75
2022/07/03 11:41:46;;;;;;;7.10;4.90;;;27.60;96.30;;;;;;5054607;28;20448;-75
2022/07/03 11:44:21;;;;;;;5.60;4.80;;;27.40;95.00;;;;;;5054704;28;20441;-75
2022/07/03 11:46:53;;;;;;;9.37;7.53;;;27.60;94.00;;;;;;5054059;28;20477;-74
2022/07/03 11:49:21;;;;;;;4.03;3.37;;;27.60;99.90;;;;;;5054268;28;20429;-75
2022/07/03 11:52:00;;;;;;;4.10;3.70;;;27.70;99.10;;;;;;5054781;28;20453;-74
2022/07/03 11:54:31;;;;;;;3.50;3.20;;;27.80;96.50;;;;;;5054776;28;21062;-74
2022/07/03 11:56:58;;;;;;;15.70;14.07;;;27.80;97.70;;;;;;5053896;28;20469;-74
2022/07/03 11:59:25;;;;;;;11.37;9.77;;;27.90;99.90;;;;;;5053590;28;20499;-74
2022/07/03 12:01:52;;;;;;;3.70;3.43;;;27.80;99.70;;;;;;5053757;28;20490;-75
2022/07/03 12:04:20;;;;;;;5.23;4.83;;;27.60;91.90;;;;;;5053944;28;20465;-74
2022/07/03 12:06:49;;;;;;;4.27;3.97;;;27.80;96.80;;;;;;5053785;28;20992;-75
2022/07/03 12:09:20;;;;;;;3.90;3.60;;;27.90;96.50;;;;;;5053917;28;20567;-74
2022/07/03 12:11:54;;;;;;;4.93;4.53;;;28.00;98.10;;;;;;5053758;28;20785;-75
2022/07/03 12:14:42;;;;;;;4.30;4.00;;;28.20;97.20;;;;;;5053564;28;20469;-75
2022/07/03 12:17:10;;;;;;;4.23;3.83;;;28.20;96.90;;;;;;5053988;28;20821;-76
2022/07/03 12:19:38;;;;;;;6.93;6.33;;;28.20;94.90;;;;;;5053898;28;20454;-74
2022/07/03 12:22:06;;;;;;;5.87;5.30;;;28.10;97.30;;;;;;5053777;28;20453;-74
2022/07/03 12:24:34;;;;;;;4.27;3.67;;;28.10;99.70;;;;;;5053571;28;20470;-75
2022/07/03 12:27:03;;;;;;;3.60;2.97;;;28.00;95.20;;;;;;5053277;28;20949;-74
2022/07/03 12:29:31;;;;;;;14.10;4.80;;;27.70;95.80;;;;;;5052359;28;20488;-76
2022/07/03 12:31:58;;;;;;;5.17;4.67;;;27.50;99.90;;;;;;5053497;28;20456;-76
2022/07/03 12:34:25;;;;;;;4.00;3.60;;;26.80;99.90;;;;;;5054080;28;20977;-76
2022/07/03 12:36:59;;;;;;;4.53;4.13;;;25.90;99.90;;;;;;5053076;28;20445;-76
2022/07/03 12:39:45;;;;;;;4.10;3.80;;;25.30;99.90;;;;;;5053657;28;20449;-75
2022/07/03 12:42:19;;;;;;;4.53;4.13;;;25.00;99.90;;;;;;5053105;28;20429;-77
2022/07/03 12:44:59;;;;;;;6.00;5.50;;;25.20;99.90;;;;;;5052961;28;20468;-76
2022/07/03 12:47:27;;;;;;;12.90;11.63;;;25.30;99.90;;;;;;5052967;28;20973;-75
2022/07/03 12:50:01;;;;;;;8.27;7.50;;;25.20;99.90;;;;;;5052940;28;20917;-76
2022/07/03 12:52:29;;;;;;;3.87;3.57;;;25.30;99.90;;;;;;5053381;28;20828;-75
2022/07/03 12:54:57;;;;;;;6.87;6.27;;;25.30;99.90;;;;;;5053286;28;20544;-75
2022/07/03 13:00:11;;;;;;;7.23;6.53;;;25.50;99.90;;;;;;5053340;28;20401;-76
2022/07/03 13:02:39;;;;;;;8.23;7.43;;;25.70;99.90;;;;;;5053125;28;20445;-76
2022/07/03 13:05:16;;;;;;;5.63;5.13;;;25.90;99.90;;;;;;5052965;28;20472;-75
2022/07/03 13:07:44;;;;;;;8.03;4.80;;;26.30;99.90;;;;;;5053007;28;20475;-75
2022/07/03 13:10:15;;;;;;;6.50;5.53;;;26.80;99.90;;;;;;5053347;28;20446;-75
2022/07/03 13:12:50;;;;;;;5.13;4.50;;;27.10;99.90;;;;;;5052888;28;20480;-76
2022/07/03 13:15:19;;;;;;;10.13;9.10;;;27.30;99.90;;;;;;5052646;28;20449;-75
2022/07/03 13:18:06;;;;;;;4.07;3.77;;;27.50;99.90;;;;;;5052715;28;20482;-75